createdAt,value
2023-02-25T00:02:48.069Z,67.37
2023-02-25T00:05:50.892Z,64.47
2023-02-25T00:08:54.285Z,67.03
2023-02-25T00:11:58.584Z,65.07
2023-02-25T00:15:01.431Z,63.43
2023-02-25T00:18:04.324Z,64.10
2023-02-25T00:21:09.512Z,66.03
2023-02-25T00:24:16.941Z,65.50
2023-02-25T00:27:21.436Z,65.67
2023-02-25T00:30:24.344Z,64.17
2023-02-25T00:33:27.226Z,65.90
2023-02-25T00:36:30.084Z,63.77
2023-02-25T00:39:42.411Z,64.50
2023-02-25T00:42:46.747Z,63.87
2023-02-25T00:45:49.522Z,63.50
2023-02-25T00:48:52.575Z,64.57
2023-02-25T00:51:57.583Z,63.97
2023-02-25T00:55:01.913Z,63.80
2023-02-25T00:58:06.178Z,63.03
2023-02-25T01:01:17.459Z,63.90
2023-02-25T01:04:20.344Z,63.50
2023-02-25T01:07:23.303Z,64.60
2023-02-25T01:10:26.163Z,64.07
2023-02-25T01:13:30.385Z,63.23
2023-02-25T01:16:33.965Z,62.83
2023-02-25T01:19:36.851Z,64.03
2023-02-25T01:22:42.019Z,62.47
2023-02-25T01:25:44.886Z,61.30
2023-02-25T01:28:49.069Z,62.73
2023-02-25T01:31:52.916Z,60.53
2023-02-25T01:34:56.634Z,60.17
2023-02-25T01:37:59.461Z,61.27
2023-02-25T01:41:02.881Z,58.40
2023-02-25T01:44:09.046Z,58.13
2023-02-25T01:47:20.786Z,56.37
2023-02-25T01:50:25.136Z,57.77
2023-02-25T01:53:29.488Z,57.43
2023-02-25T01:56:32.695Z,54.50
2023-02-25T01:59:37.424Z,53.77
2023-02-25T02:02:40.366Z,51.33
2023-02-25T02:05:56.604Z,52.50
2023-02-25T02:09:00.227Z,52.30
2023-02-25T02:12:04.410Z,50.07
2023-02-25T02:15:10.479Z,50.40
2023-02-25T02:18:13.957Z,50.33
2023-02-25T02:21:23.172Z,47.07
2023-02-25T02:24:49.538Z,47.30
2023-02-25T02:28:01.527Z,47.77
2023-02-25T02:31:28.524Z,46.30
2023-02-25T02:34:37.245Z,47.80
2023-02-25T02:37:43.309Z,47.90
2023-02-25T02:40:52.390Z,47.73
2023-02-25T02:43:58.813Z,45.60
2023-02-25T02:47:04.338Z,43.90
2023-02-25T02:50:09.867Z,44.20
2023-02-25T02:53:14.791Z,42.43
2023-02-25T02:56:19.869Z,41.03
2023-02-25T02:59:26.065Z,39.33
2023-02-25T03:02:30.309Z,37.53
2023-02-25T03:05:36.186Z,36.33
2023-02-25T03:08:44.839Z,35.70
2023-02-25T03:11:47.704Z,35.73
2023-02-25T03:14:50.554Z,33.53
2023-02-25T03:17:55.424Z,34.83
2023-02-25T03:21:00.120Z,32.77
2023-02-25T03:24:04.219Z,32.10
2023-02-25T03:27:21.411Z,31.23
2023-02-25T03:30:30.886Z,32.33
2023-02-25T03:33:36.179Z,30.90
2023-02-25T03:36:43.297Z,28.93
2023-02-25T03:39:49.251Z,29.70
2023-02-25T03:42:54.340Z,27.40
2023-02-25T03:45:57.826Z,27.27
2023-02-25T03:49:01.100Z,26.13
2023-02-25T03:52:07.367Z,27.27
2023-02-25T03:55:11.499Z,26.23
2023-02-25T03:58:14.350Z,27.13
2023-02-25T04:01:18.827Z,24.70
2023-02-25T04:04:21.644Z,24.23
2023-02-25T04:07:25.956Z,24.37
2023-02-25T04:10:29.180Z,24.50
2023-02-25T04:13:32.032Z,23.60
2023-02-25T04:16:34.817Z,24.00
2023-02-25T04:19:37.663Z,24.47
2023-02-25T04:22:41.997Z,23.03
2023-02-25T04:25:44.863Z,23.77
2023-02-25T04:28:47.660Z,22.40
2023-02-25T04:31:50.571Z,23.00
2023-02-25T04:34:53.492Z,21.80
2023-02-25T04:37:57.708Z,23.20
2023-02-25T04:41:00.551Z,22.60
2023-02-25T04:44:04.705Z,22.20
2023-02-25T04:47:08.672Z,21.17
2023-02-25T04:50:12.224Z,20.77
2023-02-25T04:53:16.468Z,21.17
2023-02-25T04:56:19.636Z,20.57
2023-02-25T04:59:22.464Z,19.60
2023-02-25T05:02:25.354Z,20.03
2023-02-25T05:05:28.216Z,18.83
2023-02-25T05:08:33.136Z,19.13
2023-02-25T05:11:35.991Z,18.90
2023-02-25T05:14:38.821Z,18.93
2023-02-25T05:17:41.641Z,19.17
2023-02-25T05:20:45.760Z,18.43
2023-02-25T05:23:50.509Z,17.57
2023-02-25T05:26:53.372Z,17.53
2023-02-25T05:29:56.253Z,18.10
2023-02-25T05:32:59.106Z,17.43
2023-02-25T05:36:01.966Z,16.97
2023-02-25T05:39:07.593Z,16.87
2023-02-25T05:42:11.615Z,16.40
2023-02-25T05:45:14.408Z,15.43
2023-02-25T05:48:17.179Z,15.77
2023-02-25T05:51:22.764Z,17.23
2023-02-25T05:54:27.041Z,22.30
2023-02-25T05:57:29.892Z,24.57
2023-02-25T06:00:32.751Z,23.63
2023-02-25T06:03:35.726Z,19.70
2023-02-25T06:06:38.596Z,19.33
2023-02-25T06:09:42.819Z,17.60
2023-02-25T06:12:46.584Z,17.70
2023-02-25T06:15:49.452Z,17.00
2023-02-25T06:18:52.687Z,19.57
2023-02-25T06:21:55.563Z,18.37
2023-02-25T06:24:59.796Z,19.93
2023-02-25T06:28:03.261Z,22.40
2023-02-25T06:31:08.622Z,20.13
2023-02-25T06:34:11.418Z,18.93
2023-02-25T06:37:16.252Z,18.20
2023-02-25T06:40:21.027Z,17.57
2023-02-25T06:43:23.912Z,17.43
2023-02-25T06:46:27.514Z,16.87
2023-02-25T06:49:31.054Z,17.97
2023-02-25T06:52:33.927Z,16.47
2023-02-25T06:55:39.372Z,19.60
2023-02-25T06:58:42.308Z,17.93
2023-02-25T07:01:45.114Z,17.50
2023-02-25T07:04:47.917Z,28.60
2023-02-25T07:07:51.240Z,22.63
2023-02-25T07:10:55.488Z,20.17
2023-02-25T07:13:58.942Z,17.93
2023-02-25T07:17:03.190Z,16.33
2023-02-25T07:20:06.392Z,20.63
2023-02-25T07:23:09.179Z,19.30
2023-02-25T07:26:14.378Z,15.63
2023-02-25T07:29:17.260Z,18.97
2023-02-25T07:32:20.256Z,14.13
2023-02-25T07:35:23.124Z,17.03
2023-02-25T07:38:25.922Z,14.13
2023-02-25T07:41:30.230Z,16.20
2023-02-25T07:44:34.041Z,15.00
2023-02-25T07:47:36.876Z,14.30
2023-02-25T07:50:39.727Z,14.37
2023-02-25T07:53:42.582Z,14.40
2023-02-25T07:56:46.807Z,14.07
2023-02-25T07:59:49.622Z,17.10
2023-02-25T08:02:52.522Z,14.63
2023-02-25T08:05:55.338Z,15.37
2023-02-25T08:08:58.216Z,14.67
2023-02-25T08:12:02.481Z,14.97
2023-02-25T08:15:05.610Z,13.50
2023-02-25T08:18:08.397Z,13.00
2023-02-25T08:21:11.465Z,13.10
2023-02-25T08:24:14.241Z,20.70
2023-02-25T08:27:18.439Z,17.50
2023-02-25T08:30:22.021Z,12.93
2023-02-25T08:33:25.216Z,12.90
2023-02-25T08:36:29.254Z,15.13
2023-02-25T08:39:35.212Z,13.20
2023-02-25T08:42:39.461Z,13.33
2023-02-25T08:45:42.906Z,17.60
2023-02-25T08:48:45.777Z,16.00
2023-02-25T08:51:51.026Z,15.37
2023-02-25T08:54:53.885Z,14.07
2023-02-25T08:57:58.083Z,13.37
2023-02-25T09:01:01.450Z,14.33
2023-02-25T09:04:04.356Z,15.20
2023-02-25T09:07:07.219Z,15.53
2023-02-25T09:10:12.827Z,16.13
2023-02-25T09:13:17.393Z,14.83
2023-02-25T09:16:20.569Z,16.90
2023-02-25T09:19:23.528Z,14.50
2023-02-25T09:22:26.426Z,15.80
2023-02-25T09:25:30.768Z,19.30
2023-02-25T09:28:35.161Z,21.00
2023-02-25T09:31:39.830Z,16.50
2023-02-25T09:34:42.817Z,17.63
2023-02-25T09:37:45.714Z,16.50
2023-02-25T09:40:49.012Z,14.77
2023-02-25T09:43:56.670Z,20.13
2023-02-25T09:47:03.587Z,26.03
2023-02-25T09:50:08.134Z,20.63
2023-02-25T09:53:15.361Z,21.00
2023-02-25T09:56:19.428Z,21.53
2023-02-25T09:59:24.618Z,17.53
2023-02-25T10:02:31.849Z,21.90
2023-02-25T10:05:43.481Z,19.33
2023-02-25T10:08:49.682Z,20.10
2023-02-25T10:11:54.290Z,22.00
2023-02-25T10:15:06.580Z,16.93
2023-02-25T10:18:15.526Z,15.07
2023-02-25T10:21:24.741Z,16.50
2023-02-25T10:24:31.543Z,25.67
2023-02-25T10:27:37.632Z,30.30
2023-02-25T10:30:48.161Z,35.97
2023-02-25T10:33:52.856Z,42.43
2023-02-25T10:36:56.840Z,56.57
2023-02-25T10:40:01.908Z,63.63
2023-02-25T10:43:18.143Z,62.77
2023-02-25T10:46:24.557Z,66.07
2023-02-25T10:49:28.264Z,64.23
2023-02-25T10:52:31.087Z,53.70
2023-02-25T10:55:51.536Z,49.90
2023-02-25T10:59:01.992Z,47.00
2023-02-25T11:02:06.736Z,46.97
2023-02-25T11:05:30.112Z,46.60
2023-02-25T11:08:34.028Z,47.67
2023-02-25T11:11:38.685Z,44.80
2023-02-25T11:14:41.609Z,44.27
2023-02-25T11:17:46.459Z,44.67
2023-02-25T11:20:50.589Z,43.63
2023-02-25T11:23:55.001Z,45.50
2023-02-25T11:26:58.589Z,43.37
2023-02-25T11:30:03.752Z,43.27
2023-02-25T11:33:17.785Z,44.00
2023-02-25T11:36:24.471Z,41.00
2023-02-25T11:39:28.539Z,41.53
2023-02-25T11:42:31.535Z,39.67
2023-02-25T11:45:35.831Z,41.00
2023-02-25T11:48:50.346Z,38.40
2023-02-25T11:51:56.497Z,37.97
2023-02-25T11:55:08.022Z,37.10
2023-02-25T11:58:16.386Z,36.83
2023-02-25T12:01:22.700Z,34.33
2023-02-25T12:04:40.329Z,35.60
2023-02-25T12:08:11.844Z,35.47
2023-02-25T12:11:30.905Z,34.67
2023-02-25T12:14:57.439Z,36.33
2023-02-25T12:18:22.596Z,36.07
2023-02-25T12:21:44.655Z,35.60
2023-02-25T12:24:57.144Z,36.43
2023-02-25T12:28:08.792Z,36.90
2023-02-25T12:31:21.505Z,33.53
2023-02-25T12:34:30.065Z,33.47
2023-02-25T12:37:51.579Z,32.93
2023-02-25T12:41:21.588Z,33.83
2023-02-25T12:44:51.473Z,32.73
2023-02-25T12:48:02.670Z,33.33
2023-02-25T12:51:14.877Z,31.33
2023-02-25T12:54:29.750Z,32.40
2023-02-25T12:57:39.899Z,30.67
2023-02-25T13:01:12.744Z,28.73
2023-02-25T13:04:36.295Z,30.43
2023-02-25T13:07:57.456Z,28.97
2023-02-25T13:11:10.631Z,28.97
2023-02-25T13:14:22.272Z,27.63
2023-02-25T13:17:38.634Z,26.97
2023-02-25T13:21:05.166Z,27.43
2023-02-25T13:24:16.526Z,27.43
2023-02-25T13:27:31.874Z,27.23
2023-02-25T13:30:39.339Z,26.90
2023-02-25T13:33:48.996Z,26.33
2023-02-25T13:37:04.486Z,25.50
2023-02-25T13:40:17.101Z,26.27
2023-02-25T13:43:29.587Z,25.27
2023-02-25T13:46:39.933Z,25.33
2023-02-25T13:49:53.361Z,25.13
2023-02-25T13:53:04.503Z,24.50
2023-02-25T13:56:24.657Z,25.90
2023-02-25T13:59:38.541Z,27.13
2023-02-25T14:02:58.587Z,25.53
2023-02-25T14:06:04.483Z,23.30
2023-02-25T14:09:16.000Z,23.97
2023-02-25T14:12:28.212Z,24.87
2023-02-25T14:15:39.008Z,23.97
2023-02-25T14:18:56.154Z,23.70
2023-02-25T14:22:20.162Z,23.03
2023-02-25T14:25:29.548Z,23.33
2023-02-25T14:28:34.110Z,23.37
2023-02-25T14:31:45.329Z,21.93
2023-02-25T14:34:59.165Z,23.00
2023-02-25T14:38:07.589Z,21.87
2023-02-25T14:41:15.686Z,21.47
2023-02-25T14:44:20.187Z,20.80
2023-02-25T14:47:28.692Z,21.23
2023-02-25T14:50:35.088Z,20.90
2023-02-25T14:53:52.217Z,22.80
2023-02-25T14:57:03.463Z,24.60
2023-02-25T15:00:24.101Z,25.57
2023-02-25T15:03:41.156Z,29.90
2023-02-25T15:07:00.363Z,32.60
2023-02-25T15:10:18.007Z,33.87
2023-02-25T15:13:29.018Z,34.87
2023-02-25T15:16:46.916Z,42.53
2023-02-25T15:20:07.340Z,37.93
2023-02-25T15:23:12.977Z,18.67
2023-02-25T15:26:22.869Z,15.87
2023-02-25T15:29:40.498Z,18.47
2023-02-25T15:32:56.549Z,12.50
2023-02-25T15:36:00.515Z,21.50
2023-02-25T15:39:05.191Z,13.50
2023-02-25T15:42:09.686Z,11.00
2023-02-25T15:45:45.529Z,15.80
2023-02-25T15:49:03.807Z,11.73
2023-02-25T15:52:07.633Z,15.00
2023-02-25T15:55:31.838Z,14.93
2023-02-25T15:58:52.428Z,12.83
2023-02-25T16:01:56.422Z,13.30
2023-02-25T16:04:59.800Z,20.77
2023-02-25T16:08:17.429Z,14.10
2023-02-25T16:11:24.276Z,11.53
2023-02-25T16:14:29.217Z,13.43
2023-02-25T16:17:33.848Z,14.30
2023-02-25T16:20:46.528Z,15.00
2023-02-25T16:23:49.526Z,13.43
2023-02-25T16:26:57.845Z,14.07
2023-02-25T16:30:04.072Z,13.70
2023-02-25T16:33:09.298Z,15.47
2023-02-25T16:36:15.342Z,12.20
2023-02-25T16:39:20.472Z,14.53
2023-02-25T16:42:24.683Z,20.73
2023-02-25T16:45:30.281Z,25.80
2023-02-25T16:48:34.408Z,18.03
2023-02-25T16:51:39.363Z,17.03
2023-02-25T16:54:42.248Z,15.77
2023-02-25T16:58:01.465Z,17.77
2023-02-25T17:01:04.474Z,19.03
2023-02-25T17:04:15.325Z,15.90
2023-02-25T17:07:20.044Z,18.03
2023-02-25T17:10:25.136Z,22.53
2023-02-25T17:13:30.794Z,21.00
2023-02-25T17:16:38.306Z,18.90
2023-02-25T17:19:41.205Z,20.57
2023-02-25T17:22:45.252Z,24.10
2023-02-25T17:25:49.666Z,21.10
2023-02-25T17:28:55.359Z,25.70
2023-02-25T17:31:58.238Z,25.63
2023-02-25T17:35:03.478Z,30.93
2023-02-25T17:38:07.147Z,32.43
2023-02-25T17:41:10.992Z,35.43
2023-02-25T17:44:35.166Z,38.37
2023-02-25T17:47:39.457Z,42.30
2023-02-25T17:50:42.322Z,39.57
2023-02-25T17:53:47.400Z,38.47
2023-02-25T17:56:56.371Z,38.17
2023-02-25T18:00:04.387Z,36.57
2023-02-25T18:03:18.338Z,38.50
2023-02-25T18:06:40.115Z,38.67
2023-02-25T18:09:43.064Z,39.53
2023-02-25T18:12:48.670Z,38.27
2023-02-25T18:16:11.646Z,39.17
2023-02-25T18:19:27.073Z,38.37
2023-02-25T18:22:34.772Z,35.37
2023-02-25T18:25:38.508Z,37.10
2023-02-25T18:28:41.399Z,37.90
2023-02-25T18:31:44.508Z,35.50
2023-02-25T18:34:48.843Z,33.80
2023-02-25T18:37:52.935Z,34.67
2023-02-25T18:40:55.725Z,31.37
2023-02-25T18:43:59.966Z,32.33
2023-02-25T18:47:03.692Z,31.47
2023-02-25T18:50:09.239Z,30.50
2023-02-25T18:53:14.828Z,30.77
2023-02-25T18:56:18.316Z,32.23
2023-02-25T18:59:21.139Z,33.13
2023-02-25T19:02:28.403Z,31.20
2023-02-25T19:05:32.742Z,31.00
2023-02-25T19:08:35.526Z,30.67
2023-02-25T19:11:38.380Z,28.10
2023-02-25T19:14:41.241Z,26.80
2023-02-25T19:17:44.208Z,25.90
2023-02-25T19:20:48.773Z,21.67
2023-02-25T19:23:53.919Z,17.97
2023-02-25T19:27:00.042Z,15.53
2023-02-25T19:30:03.518Z,12.93
2023-02-25T19:33:06.548Z,15.83
2023-02-25T19:36:12.159Z,14.67
2023-02-25T19:39:14.959Z,16.43
2023-02-25T19:42:17.852Z,13.30
2023-02-25T19:45:21.531Z,9.47
2023-02-25T19:48:24.495Z,12.73
2023-02-25T19:51:28.730Z,10.73
2023-02-25T19:54:31.627Z,8.73
2023-02-25T19:57:34.477Z,13.43
2023-02-25T20:00:37.352Z,11.13
2023-02-25T20:03:40.261Z,11.87
2023-02-25T20:06:44.464Z,18.70
2023-02-25T20:09:47.258Z,11.50
2023-02-25T20:12:50.091Z,12.97
2023-02-25T20:15:52.905Z,12.07
2023-02-25T20:18:57.584Z,9.67
2023-02-25T20:22:02.926Z,12.50
2023-02-25T20:25:06.337Z,10.80
2023-02-25T20:28:09.196Z,11.47
2023-02-25T20:31:12.904Z,10.83
2023-02-25T20:34:18.056Z,11.50
2023-02-25T20:37:24.630Z,10.17
2023-02-25T20:40:27.659Z,8.37
2023-02-25T20:43:30.567Z,14.27
2023-02-25T20:46:33.481Z,10.00
2023-02-25T20:49:38.326Z,7.97
2023-02-25T20:52:42.805Z,11.30
2023-02-25T20:55:45.645Z,8.40
2023-02-25T20:58:48.452Z,9.50
2023-02-25T21:01:51.282Z,12.03
2023-02-25T21:04:54.076Z,8.87
2023-02-25T21:07:58.407Z,6.40
2023-02-25T21:11:02.242Z,11.40
2023-02-25T21:14:09.130Z,10.20
2023-02-25T21:17:13.771Z,7.90
2023-02-25T21:20:16.697Z,7.70
2023-02-25T21:23:20.945Z,9.63
2023-02-25T21:26:23.990Z,7.63
2023-02-25T21:30:37.691Z,9.87
2023-02-25T21:33:41.542Z,8.07
2023-02-25T21:36:44.891Z,6.53
2023-02-25T21:39:48.051Z,7.63
2023-02-25T21:42:51.528Z,5.93
2023-02-25T21:45:57.009Z,6.80
2023-02-25T21:49:00.208Z,5.87
2023-02-25T21:52:03.341Z,8.63
2023-02-25T21:55:07.467Z,6.20
2023-02-25T21:58:11.074Z,7.13
2023-02-25T22:01:18.931Z,6.37
2023-02-25T22:04:22.144Z,5.53
2023-02-25T22:07:25.302Z,5.13
2023-02-25T22:10:28.582Z,5.57
2023-02-25T22:13:34.440Z,7.90
2023-02-25T22:16:40.254Z,6.77
2023-02-25T22:19:43.460Z,6.57
2023-02-25T22:22:46.516Z,6.20
2023-02-25T22:25:49.609Z,6.30
2023-02-25T22:28:55.713Z,6.07
2023-02-25T22:32:00.420Z,6.30
2023-02-25T22:35:03.592Z,5.27
2023-02-25T22:38:06.737Z,5.40
2023-02-25T22:41:13.703Z,5.47
2023-02-25T22:44:17.087Z,5.60
2023-02-25T22:47:21.760Z,6.47
2023-02-25T22:50:27.350Z,5.30
2023-02-25T22:53:30.586Z,5.10
2023-02-25T22:56:33.704Z,5.57
2023-02-25T22:59:36.796Z,5.77
2023-02-25T23:02:41.389Z,4.60
2023-02-25T23:05:44.449Z,4.33
2023-02-25T23:08:48.152Z,5.93
2023-02-25T23:11:51.245Z,4.50
2023-02-25T23:14:54.368Z,4.23
2023-02-25T23:18:03.708Z,6.03
2023-02-25T23:21:09.214Z,4.97
2023-02-25T23:24:16.460Z,6.73
2023-02-25T23:27:19.793Z,4.40
2023-02-25T23:30:22.995Z,4.20
2023-02-25T23:33:27.443Z,4.03
2023-02-25T23:36:30.925Z,5.07
2023-02-25T23:39:34.493Z,4.50
2023-02-25T23:42:37.592Z,6.70
2023-02-25T23:45:40.779Z,4.53
2023-02-25T23:48:45.766Z,6.13
2023-02-25T23:51:49.671Z,5.40
2023-02-25T23:54:53.420Z,4.30
2023-02-25T23:57:56.600Z,4.20
